Temp: 4.0°C   Baro: 1034.2mb
  Wind: 0.0mph   Dir: SSW (196°)
  Rain: 0.0mm (0.0mm/hr)
  Solar: 0W/m2  Hum: 85%

Historic data

Bath Spa Weather Station Historical Data
Daily Summary for November 26, 2021 Units:  Both    English   Metric
Daily Weekly Monthly Yearly Custom
  High: Low: Average:
Temperature: 48.8 °F /  9.3 °C 37.8 °F /  3.2 °C 42.5 °F /  5.8 °C
Dew Point: 45.4 °F /  7.4 °C 33.8 °F /  1 °C 39.1 °F /  3.9 °C
Humidity: 90% 76.6% 85%
Wind Speed: 13.4mph /  21.6km/h - 6mph /  9.7km/h
Wind Gust: 28mph /  45.1km/h - -
Wind- - WNW
Pressure: 29.93 in /  1013.4 hPa 29.22 in /  989.4 hPa -
Precipitation: 0.09 in /  2.29 mm    
Historical Graphs
 
 
Tabular Data for November 26, 2021
Time Temperature Dew Point Pressure Wind Wind Speed Wind Gust Humidity Rainfall Rate (Hourly) solar
00:09 38.3 °F /  3.5 °C 35.6 °F /  2 °C 29.93in /  1013.4hPa NNW 1.5mph /  2.4km/h 4mph /  6.4km/h 87% 0.00in /  0mm 0 W/m2
00:14 38.3 °F /  3.5 °C 35.6 °F /  2 °C 29.93in /  1013.4hPa NNW 2.1mph /  3.4km/h 5mph /  8km/h 87% 0.00in /  0mm 0 W/m2
00:19 38.4 °F /  3.6 °C 35.7 °F /  2.1 °C 29.92in /  1013.1hPa NNW 2.3mph /  3.7km/h 5mph /  8km/h 87% 0.00in /  0mm 0 W/m2
00:24 38.7 °F /  3.7 °C 36 °F /  2.2 °C 29.92in /  1013.1hPa NNW 3.1mph /  5km/h 6mph /  9.7km/h 87.2% 0.00in /  0mm 0 W/m2
00:29 38.7 °F /  3.7 °C 36.3 °F /  2.4 °C 29.91in /  1012.8hPa NNW 2.8mph /  4.5km/h 5mph /  8km/h 88% 0.00in /  0mm 0 W/m2
00:34 38.8 °F /  3.8 °C 36.5 °F /  2.5 °C 29.91in /  1012.8hPa NNW 3.3mph /  5.3km/h 7mph /  11.3km/h 88% 0.00in /  0mm 0 W/m2
00:39 38.9 °F /  3.8 °C 36.6 °F /  2.6 °C 29.91in /  1012.8hPa NNW 2.5mph /  4km/h 7mph /  11.3km/h 88% 0.00in /  0mm 0 W/m2
00:44 39 °F /  3.9 °C 36.7 °F /  2.6 °C 29.91in /  1012.8hPa NNW 2.1mph /  3.4km/h 6mph /  9.7km/h 88% 0.00in /  0mm 0 W/m2
00:49 39.2 °F /  4 °C 36.9 °F /  2.7 °C 29.90in /  1012.4hPa NNW 2.8mph /  4.5km/h 5mph /  8km/h 88% 0.00in /  0mm 0 W/m2
00:54 39.4 °F /  4.1 °C 37 °F /  2.8 °C 29.89in /  1012.1hPa NNW 2.8mph /  4.5km/h 5mph /  8km/h 88% 0.00in /  0mm 0 W/m2
00:59 39.6 °F /  4.2 °C 37.2 °F /  2.9 °C 29.89in /  1012.1hPa NNW 3.6mph /  5.8km/h 6mph /  9.7km/h 88% 0.00in /  0mm 0 W/m2
01:04 39.6 °F /  4.2 °C 37.2 °F /  2.9 °C 29.89in /  1012.1hPa NNW 2.5mph /  4km/h 6mph /  9.7km/h 88% 0.00in /  0mm 0 W/m2
01:08 39.6 °F /  4.2 °C 37.2 °F /  2.9 °C 29.88in /  1011.7hPa NNW 3mph /  4.8km/h 6mph /  9.7km/h 88% 0.00in /  0mm 0 W/m2
01:14 39.6 °F /  4.2 °C 37.2 °F /  2.9 °C 29.88in /  1011.7hPa NNW 3.6mph /  5.8km/h 6mph /  9.7km/h 88% 0.00in /  0mm 0 W/m2
01:19 39.6 °F /  4.2 °C 37.2 °F /  2.9 °C 29.87in /  1011.4hPa NNW 3.4mph /  5.5km/h 7mph /  11.3km/h 88% 0.00in /  0mm 0 W/m2
01:24 39.7 °F /  4.3 °C 37.4 °F /  3 °C 29.87in /  1011.4hPa NNW 3.2mph /  5.1km/h 7mph /  11.3km/h 88% 0.00in /  0mm 0 W/m2
01:29 39.7 °F /  4.3 °C 37.4 °F /  3 °C 29.86in /  1011.1hPa NNW 3.3mph /  5.3km/h 6mph /  9.7km/h 88% 0.00in /  0mm 0 W/m2
01:34 39.8 °F /  4.3 °C 37.5 °F /  3.1 °C 29.86in /  1011.1hPa NNW 1.9mph /  3.1km/h 5mph /  8km/h 88% 0.00in /  0mm 0 W/m2
01:39 39.9 °F /  4.4 °C 37.6 °F /  3.1 °C 29.86in /  1011.1hPa NNW 3.7mph /  6km/h 8mph /  12.9km/h 88% 0.00in /  0mm 0 W/m2
01:44 40.1 °F /  4.5 °C 37.7 °F /  3.2 °C 29.85in /  1010.7hPa NNW 4.3mph /  6.9km/h 8mph /  12.9km/h 88% 0.00in /  0mm 0 W/m2
01:49 40.3 °F /  4.6 °C 37.9 °F /  3.3 °C 29.85in /  1010.7hPa NNW 4.1mph /  6.6km/h 8mph /  12.9km/h 88% 0.00in /  0mm 0 W/m2
01:54 40.4 °F /  4.7 °C 37.8 °F /  3.2 °C 29.85in /  1010.7hPa NNW 4.1mph /  6.6km/h 8mph /  12.9km/h 87.2% 0.00in /  0mm 0 W/m2
01:59 40.5 °F /  4.7 °C 37.8 °F /  3.2 °C 29.85in /  1010.7hPa NNW 3.5mph /  5.6km/h 6mph /  9.7km/h 87% 0.00in /  0mm 0 W/m2
02:04 40.5 °F /  4.7 °C 37.8 °F /  3.2 °C 29.84in /  1010.4hPa NNW 3.4mph /  5.5km/h 7mph /  11.3km/h 87% 0.00in /  0mm 0 W/m2
02:09 40.5 °F /  4.7 °C 37.8 °F /  3.2 °C 29.83in /  1010hPa NNW 2.1mph /  3.4km/h 5mph /  8km/h 87% 0.00in /  0mm 0 W/m2
02:14 40.5 °F /  4.7 °C 37.8 °F /  3.2 °C 29.83in /  1010hPa NNW 3.2mph /  5.1km/h 7mph /  11.3km/h 87% 0.00in /  0mm 0 W/m2
02:19 40.5 °F /  4.7 °C 37.8 °F /  3.2 °C 29.83in /  1010hPa NNW 2.4mph /  3.9km/h 7mph /  11.3km/h 87% 0.00in /  0mm 0 W/m2
02:24 40.6 °F /  4.8 °C 37.9 °F /  3.3 °C 29.82in /  1009.7hPa NNW 3.2mph /  5.1km/h 9mph /  14.5km/h 87% 0.00in /  0mm 0 W/m2
02:29 40.7 °F /  4.8 °C 37.9 °F /  3.3 °C 29.82in /  1009.7hPa NW 3.3mph /  5.3km/h 9mph /  14.5km/h 86.6% 0.00in /  0mm 0 W/m2
02:34 40.8 °F /  4.9 °C 37.8 °F /  3.2 °C 29.81in /  1009.4hPa NW 4.9mph /  7.9km/h 8mph /  12.9km/h 86% 0.00in /  0mm 0 W/m2
02:39 41 °F /  5 °C 37.9 °F /  3.3 °C 29.80in /  1009hPa NW 3.9mph /  6.3km/h 9mph /  14.5km/h 86% 0.00in /  0mm 0 W/m2
02:44 41.3 °F /  5.2 °C 38.2 °F /  3.4 °C 29.80in /  1009hPa WNW 4.6mph /  7.4km/h 10mph /  16.1km/h 86% 0.00in /  0mm 0 W/m2
02:49 41.5 °F /  5.3 °C 38.5 °F /  3.6 °C 29.79in /  1008.7hPa WNW 5.3mph /  8.5km/h 11mph /  17.7km/h 85.8% 0.00in /  0mm 0 W/m2
02:54 41.7 °F /  5.4 °C 38.5 °F /  3.6 °C 29.79in /  1008.7hPa WNW 4.4mph /  7.1km/h 11mph /  17.7km/h 85% 0.00in /  0mm 0 W/m2
02:59 42 °F /  5.6 °C 38.7 °F /  3.7 °C 29.79in /  1008.7hPa WNW 4.4mph /  7.1km/h 8mph /  12.9km/h 85% 0.00in /  0mm 0 W/m2
03:04 42.1 °F /  5.6 °C 38.6 °F /  3.7 °C 29.78in /  1008.4hPa WNW 1.7mph /  2.7km/h 5mph /  8km/h 84.2% 0.00in /  0mm 0 W/m2
03:09 42.1 °F /  5.6 °C 38.5 °F /  3.6 °C 29.78in /  1008.4hPa WNW 0.6mph /  1km/h 4mph /  6.4km/h 84% 0.00in /  0mm 0 W/m2
03:14 41.9 °F /  5.5 °C 38.3 °F /  3.5 °C 29.77in /  1008hPa WNW 0.4mph /  0.6km/h 4mph /  6.4km/h 84% 0.00in /  0mm 0 W/m2
03:19 41.9 °F /  5.5 °C 38.3 °F /  3.5 °C 29.77in /  1008hPa Calm     84% 0.00in /  0mm 0 W/m2
03:24 41.9 °F /  5.5 °C 38.3 °F /  3.5 °C 29.76in /  1007.7hPa WNW 1mph /  1.6km/h 4mph /  6.4km/h 84% 0.00in /  0mm 0 W/m2
03:29 42 °F /  5.6 °C 38.7 °F /  3.7 °C 29.75in /  1007.3hPa WNW 1mph /  1.6km/h 5mph /  8km/h 84.8% 0.00in /  0mm 0 W/m2
03:34 42.1 °F /  5.6 °C 38.8 °F /  3.8 °C 29.74in /  1007hPa WNW 2.9mph /  4.7km/h 6mph /  9.7km/h 84.8% 0.00in /  0mm 0 W/m2
03:39 42.3 °F /  5.7 °C 39 °F /  3.9 °C 29.74in /  1007hPa WNW 3.7mph /  6km/h 6mph /  9.7km/h 85% 0.00in /  0mm 0 W/m2
03:44 42.4 °F /  5.8 °C 39.2 °F /  4 °C 29.73in /  1006.7hPa WNW 3.5mph /  5.6km/h 7mph /  11.3km/h 85% 0.00in /  0mm 0 W/m2
03:49 42.5 °F /  5.8 °C 39.3 °F /  4.1 °C 29.73in /  1006.7hPa WNW 2mph /  3.2km/h 7mph /  11.3km/h 85% 0.00in /  0mm 0 W/m2
03:54 42.6 °F /  5.9 °C 39.4 °F /  4.1 °C 29.73in /  1006.7hPa WNW 1.4mph /  2.3km/h 4mph /  6.4km/h 85% 0.00in /  0mm 0 W/m2
03:59 42.6 °F /  5.9 °C 39.4 °F /  4.1 °C 29.72in /  1006.3hPa Calm   4mph /  6.4km/h 85% 0.00in /  0mm 0 W/m2
04:04 42.6 °F /  5.9 °C 39.4 °F /  4.1 °C 29.71in /  1006hPa WNW 3.3mph /  5.3km/h 7mph /  11.3km/h 85% 0.00in /  0mm 0 W/m2
04:09 42.7 °F /  5.9 °C 39.5 °F /  4.2 °C 29.71in /  1006hPa WNW 3.7mph /  6km/h 9mph /  14.5km/h 85% 0.00in /  0mm 0 W/m2
04:14 42.9 °F /  6.1 °C 39.6 °F /  4.2 °C 29.70in /  1005.6hPa West 2.9mph /  4.7km/h 9mph /  14.5km/h 85% 0.00in /  0mm 0 W/m2
04:19 42.8 °F /  6 °C 39.6 °F /  4.2 °C 29.70in /  1005.6hPa West 4.5mph /  7.2km/h 10mph /  16.1km/h 85% 0.00in /  0mm 0 W/m2
04:24 42.6 °F /  5.9 °C 39.4 °F /  4.1 °C 29.69in /  1005.3hPa SW 7mph /  11.3km/h 12mph /  19.3km/h 85% 0.00in /  0mm 0 W/m2
04:29 42.4 °F /  5.8 °C 39.2 °F /  4 °C 29.69in /  1005.3hPa SW 4.8mph /  7.7km/h 10mph /  16.1km/h 85% 0.00in /  0mm 0 W/m2
04:34 42.4 °F /  5.8 °C 39.4 °F /  4.1 °C 29.68in /  1005hPa WSW 5.4mph /  8.7km/h 13mph /  20.9km/h 85.8% 0.00in /  0mm 0 W/m2
04:39 42.4 °F /  5.8 °C 39.4 °F /  4.1 °C 29.67in /  1004.6hPa WSW 6.5mph /  10.5km/h 13mph /  20.9km/h 86% 0.00in /  0mm 0 W/m2
04:44 42.2 °F /  5.7 °C 39.1 °F /  3.9 °C 29.66in /  1004.3hPa WSW 6mph /  9.7km/h 12mph /  19.3km/h 86% 0.00in /  0mm 0 W/m2
04:49 42.1 °F /  5.6 °C 39.3 °F /  4.1 °C 29.66in /  1004.3hPa WSW 6.6mph /  10.6km/h 10mph /  16.1km/h 86.8% 0.00in /  0mm 0 W/m2
04:54 42.2 °F /  5.7 °C 39.5 °F /  4.2 °C 29.65in /  1003.9hPa WSW 5.3mph /  8.5km/h 11mph /  17.7km/h 87% 0.00in /  0mm 0 W/m2
04:59 42.3 °F /  5.7 °C 39.6 °F /  4.2 °C 29.65in /  1003.9hPa West 4.7mph /  7.6km/h 11mph /  17.7km/h 87% 0.00in /  0mm 0 W/m2
05:04 42.4 °F /  5.8 °C 39.7 °F /  4.3 °C 29.64in /  1003.6hPa West 4mph /  6.4km/h 10mph /  16.1km/h 87% 0.00in /  0mm 0 W/m2
05:09 42.4 °F /  5.8 °C 39.7 °F /  4.3 °C 29.64in /  1003.6hPa West 6.4mph /  10.3km/h 13mph /  20.9km/h 87% 0.00in /  0mm 0 W/m2
05:14 42.4 °F /  5.8 °C 39.9 °F /  4.4 °C 29.64in /  1003.6hPa West 5.8mph /  9.3km/h 9mph /  14.5km/h 87.6% 0.00in /  0mm 0 W/m2
05:19 42.3 °F /  5.7 °C 39.8 °F /  4.3 °C 29.63in /  1003.3hPa WSW 6.3mph /  10.1km/h 13mph /  20.9km/h 87.8% 0.00in /  0mm 0 W/m2
05:24 42.2 °F /  5.7 °C 39.8 °F /  4.3 °C 29.63in /  1003.3hPa West 5.2mph /  8.4km/h 10mph /  16.1km/h 88% 0.00in /  0mm 0 W/m2
05:29 42.1 °F /  5.6 °C 39.7 °F /  4.3 °C 29.62in /  1002.9hPa West 5.7mph /  9.2km/h 10mph /  16.1km/h 88% 0.00in /  0mm 0 W/m2
05:34 42.1 °F /  5.6 °C 39.7 °F /  4.3 °C 29.62in /  1002.9hPa West 3.6mph /  5.8km/h 11mph /  17.7km/h 88% 0.00in /  0mm 0 W/m2
05:39 42.3 °F /  5.7 °C 39.9 °F /  4.4 °C 29.62in /  1002.9hPa WNW 4.5mph /  7.2km/h 9mph /  14.5km/h 88% 0.00in /  0mm 0 W/m2
05:44 42.3 °F /  5.7 °C 39.9 °F /  4.4 °C 29.62in /  1002.9hPa West 3.9mph /  6.3km/h 9mph /  14.5km/h 88% 0.00in /  0mm 0 W/m2
05:49 42.4 °F /  5.8 °C 40.1 °F /  4.5 °C 29.61in /  1002.6hPa West 3.9mph /  6.3km/h 7mph /  11.3km/h 88% 0.00in /  0mm 0 W/m2
05:54 42.6 °F /  5.9 °C 40.5 °F /  4.7 °C 29.61in /  1002.6hPa West 3.8mph /  6.1km/h 9mph /  14.5km/h 88.8% 0.00in /  0mm 0 W/m2
05:59 42.8 °F /  6 °C 40.6 °F /  4.8 °C 29.60in /  1002.3hPa West 3.6mph /  5.8km/h 9mph /  14.5km/h 89% 0.00in /  0mm 0 W/m2
06:04 42.7 °F /  5.9 °C 40.6 °F /  4.8 °C 29.60in /  1002.3hPa West 3.6mph /  5.8km/h 7mph /  11.3km/h 89% 0.00in /  0mm 0 W/m2
06:09 42.7 °F /  5.9 °C 40.6 °F /  4.8 °C 29.59in /  1001.9hPa WSW 5.4mph /  8.7km/h 8mph /  12.9km/h 89% 0.00in /  0mm 0 W/m2
06:14 42.9 °F /  6.1 °C 40.7 °F /  4.8 °C 29.58in /  1001.6hPa WSW 3.2mph /  5.1km/h 8mph /  12.9km/h 89% 0.00in /  0mm 0 W/m2
06:19 43 °F /  6.1 °C 40.7 °F /  4.8 °C 29.58in /  1001.6hPa WSW 2.1mph /  3.4km/h 6mph /  9.7km/h 88.4% 0.00in /  0mm 0 W/m2
06:24 43.1 °F /  6.2 °C 40.7 °F /  4.8 °C 29.58in /  1001.6hPa WSW 2.2mph /  3.5km/h 5mph /  8km/h 88% 0.00in /  0mm 0 W/m2
06:29 43.2 °F /  6.2 °C 40.8 °F /  4.9 °C 29.57in /  1001.2hPa WSW 1.2mph /  1.9km/h 3mph /  4.8km/h 88% 0.00in /  0mm 0 W/m2
06:34 43.2 °F /  6.2 °C 40.8 °F /  4.9 °C 29.57in /  1001.2hPa WSW 0.4mph /  0.6km/h 2mph /  3.2km/h 88.2% 0.00in /  0mm 0 W/m2
06:39 43.2 °F /  6.2 °C 41 °F /  5 °C 29.57in /  1001.2hPa WSW 0.6mph /  1km/h 2mph /  3.2km/h 89% 0.00in /  0mm 0 W/m2
06:44 43.3 °F /  6.3 °C 41.1 °F /  5.1 °C 29.56in /  1000.9hPa WSW 2.2mph /  3.5km/h 5mph /  8km/h 89% 0.00in /  0mm 0 W/m2
06:49 43.7 °F /  6.5 °C 41.6 °F /  5.3 °C 29.55in /  1000.6hPa West 3.3mph /  5.3km/h 10mph /  16.1km/h 89% 0.00in /  0mm 0 W/m2
06:54 44.6 °F /  7 °C 42.4 °F /  5.8 °C 29.54in /  1000.2hPa WNW 5.2mph /  8.4km/h 13mph /  20.9km/h 89% 0.00in /  0mm 0 W/m2
06:59 45.2 °F /  7.3 °C 43.1 °F /  6.2 °C 29.54in /  1000.2hPa WNW 3.4mph /  5.5km/h 9mph /  14.5km/h 89% 0.00in /  0mm 0 W/m2
07:04 45.6 °F /  7.6 °C 43.3 °F /  6.3 °C 29.54in /  1000.2hPa WNW 8.7mph /  14km/h 15mph /  24.1km/h 88.6% 0.00in /  0mm 0 W/m2
07:09 46 °F /  7.8 °C 43.4 °F /  6.3 °C 29.54in /  1000.2hPa WNW 8mph /  12.9km/h 12mph /  19.3km/h 87.8% 0.00in /  0mm 0 W/m2
07:14 46 °F /  7.8 °C 43.3 °F /  6.3 °C 29.53in /  999.9hPa West 5.3mph /  8.5km/h 11mph /  17.7km/h 87% 0.00in /  0mm 0 W/m2
07:19 46 °F /  7.8 °C 43.3 °F /  6.3 °C 29.53in /  999.9hPa WNW 4.7mph /  7.6km/h 10mph /  16.1km/h 87% 0.00in /  0mm 0 W/m2
07:24 46 °F /  7.8 °C 43.1 °F /  6.2 °C 29.53in /  999.9hPa WNW 5.8mph /  9.3km/h 9mph /  14.5km/h 86.4% 0.00in /  0mm 0 W/m2
07:29 46 °F /  7.8 °C 43 °F /  6.1 °C 29.52in /  999.5hPa WNW 4.5mph /  7.2km/h 11mph /  17.7km/h 86% 0.00in /  0mm 0 W/m2
07:34 46 °F /  7.8 °C 43 °F /  6.1 °C 29.52in /  999.5hPa WNW 8mph /  12.9km/h 14mph /  22.5km/h 86% 0.00in /  0mm 0 W/m2
07:39 46 °F /  7.8 °C 43 °F /  6.1 °C 29.52in /  999.5hPa WNW 6.2mph /  10km/h 12mph /  19.3km/h 86% 0.00in /  0mm 0 W/m2
07:44 46 °F /  7.8 °C 42.9 °F /  6.1 °C 29.52in /  999.5hPa WNW 7.4mph /  11.9km/h 14mph /  22.5km/h 86% 0.00in /  0mm 0 W/m2
07:49 46 °F /  7.8 °C 43.3 °F /  6.3 °C 29.52in /  999.5hPa WNW 5.5mph /  8.9km/h 14mph /  22.5km/h 87% 0.00in /  0mm 0 W/m2
07:54 46 °F /  7.8 °C 43.3 °F /  6.3 °C 29.51in /  999.2hPa WNW 8.4mph /  13.5km/h 15mph /  24.1km/h 87% 0.00in /  0mm 5 W/m2
07:59 46 °F /  7.8 °C 43.3 °F /  6.3 °C 29.51in /  999.2hPa West 6.6mph /  10.6km/h 15mph /  24.1km/h 87% 0.00in /  0mm 7 W/m2
08:04 46.1 °F /  7.8 °C 43.4 °F /  6.3 °C 29.50in /  998.9hPa WNW 7.4mph /  11.9km/h 16mph /  25.7km/h 87% 0.00in /  0mm 7 W/m2
08:09 46.2 °F /  7.9 °C 43.5 °F /  6.4 °C 29.50in /  998.9hPa WNW 6.2mph /  10km/h 16mph /  25.7km/h 87% 0.00in /  0mm 7 W/m2
08:14 46.3 °F /  7.9 °C 43.6 °F /  6.4 °C 29.50in /  998.9hPa WNW 8.3mph /  13.4km/h 18mph /  29km/h 87% 0.00in /  0mm 9 W/m2
08:19 46.4 °F /  8 °C 43.7 °F /  6.5 °C 29.49in /  998.5hPa WNW 8.8mph /  14.2km/h 17mph /  27.4km/h 87% 0.00in /  0mm 18 W/m2
08:24 46.6 °F /  8.1 °C 43.9 °F /  6.6 °C 29.49in /  998.5hPa WNW 11.9mph /  19.2km/h 22mph /  35.4km/h 87% 0.00in /  0mm 23 W/m2
08:29 46.8 °F /  8.2 °C 44.1 °F /  6.7 °C 29.49in /  998.5hPa WNW 6.2mph /  10km/h 22mph /  35.4km/h 87% 0.00in /  0mm 14 W/m2
08:34 46.9 °F /  8.3 °C 44.1 °F /  6.7 °C 29.48in /  998.2hPa WNW 10.6mph /  17.1km/h 19mph /  30.6km/h 86.8% 0.00in /  0mm 16 W/m2
08:39 47.1 °F /  8.4 °C 44.1 °F /  6.7 °C 29.48in /  998.2hPa WNW 6.7mph /  10.8km/h 16mph /  25.7km/h 86.2% 0.00in /  0mm 25 W/m2
08:44 47.1 °F /  8.4 °C 44.1 °F /  6.7 °C 29.48in /  998.2hPa WNW 10.8mph /  17.4km/h 17mph /  27.4km/h 86% 0.00in /  0mm 32 W/m2
08:49 47.4 °F /  8.6 °C 44.3 °F /  6.8 °C 29.47in /  997.9hPa WNW 10.8mph /  17.4km/h 17mph /  27.4km/h 86% 0.00in /  0mm 21 W/m2
08:54 47.5 °F /  8.6 °C 44.4 °F /  6.9 °C 29.47in /  997.9hPa WNW 7.6mph /  12.2km/h 19mph /  30.6km/h 86% 0.00in /  0mm 21 W/m2
08:59 47.5 °F /  8.6 °C 44.4 °F /  6.9 °C 29.47in /  997.9hPa WNW 9.8mph /  15.8km/h 19mph /  30.6km/h 86% 0.00in /  0mm 28 W/m2
09:04 47.5 °F /  8.6 °C 44.4 °F /  6.9 °C 29.47in /  997.9hPa WNW 10.3mph /  16.6km/h 17mph /  27.4km/h 86% 0.00in /  0mm 37 W/m2
09:09 47.7 °F /  8.7 °C 44.6 °F /  7 °C 29.47in /  997.9hPa NW 9mph /  14.5km/h 18mph /  29km/h 86% 0.00in /  0mm 33 W/m2
09:14 47.9 °F /  8.8 °C 44.5 °F /  6.9 °C 29.47in /  997.9hPa WNW 11.7mph /  18.8km/h 22mph /  35.4km/h 85.2% 0.00in /  0mm 62 W/m2
09:19 48.1 °F /  8.9 °C 44.7 °F /  7.1 °C 29.47in /  997.9hPa WNW 9.8mph /  15.8km/h 18mph /  29km/h 85% 0.00in /  0mm 107 W/m2
09:24 48.5 °F /  9.2 °C 44.8 °F /  7.1 °C 29.46in /  997.5hPa WNW 10.3mph /  16.6km/h 21mph /  33.8km/h 84.2% 0.00in /  0mm 128 W/m2
09:29 48.7 °F /  9.3 °C 44.9 °F /  7.2 °C 29.46in /  997.5hPa West 8.4mph /  13.5km/h 17mph /  27.4km/h 84% 0.00in /  0mm 127 W/m2
09:34 48.8 °F /  9.3 °C 45.1 °F /  7.3 °C 29.46in /  997.5hPa WNW 8.4mph /  13.5km/h 19mph /  30.6km/h 84% 0.00in /  0mm 181 W/m2
09:39 48.7 °F /  9.3 °C 45 °F /  7.2 °C 29.46in /  997.5hPa WNW 9.6mph /  15.4km/h 19mph /  30.6km/h 84% 0.00in /  0mm 171 W/m2
09:44 48.6 °F /  9.2 °C 44.8 °F /  7.1 °C 29.46in /  997.5hPa NW 7.2mph /  11.6km/h 15mph /  24.1km/h 84% 0.00in /  0mm 62 W/m2
09:49 48 °F /  8.9 °C 44.6 °F /  7 °C 29.47in /  997.9hPa NNW 8.8mph /  14.2km/h 16mph /  25.7km/h 85% 0.05in /  1.27mm 30 W/m2
09:54 46.9 °F /  8.3 °C 43.9 °F /  6.6 °C 29.47in /  997.9hPa WNW 11.8mph /  19km/h 18mph /  29km/h 86.2% 0.06in /  1.52mm 21 W/m2
09:59 45.9 °F /  7.7 °C 43.2 °F /  6.2 °C 29.47in /  997.9hPa WNW 10.4mph /  16.7km/h 19mph /  30.6km/h 87% 0.06in /  1.52mm 30 W/m2
10:04 45.2 °F /  7.3 °C 42.6 °F /  5.9 °C 29.45in /  997.2hPa WNW 9.4mph /  15.1km/h 15mph /  24.1km/h 87.4% 0.06in /  1.52mm 44 W/m2
10:09 44.9 °F /  7.2 °C 42.4 °F /  5.8 °C 29.46in /  997.5hPa WNW 4.9mph /  7.9km/h 13mph /  20.9km/h 88% 0.06in /  1.52mm 37 W/m2
10:14 44.5 °F /  6.9 °C 42 °F /  5.6 °C 29.46in /  997.5hPa WNW 6.7mph /  10.8km/h 13mph /  20.9km/h 88% 0.06in /  1.52mm 84 W/m2
10:19 44.5 °F /  6.9 °C 42.2 °F /  5.7 °C 29.46in /  997.5hPa WNW 4.8mph /  7.7km/h 14mph /  22.5km/h 88.6% 0.06in /  1.52mm 171 W/m2
10:24 44.8 °F /  7.1 °C 42.6 °F /  5.9 °C 29.45in /  997.2hPa NW 6mph /  9.7km/h 14mph /  22.5km/h 89% 0.06in /  1.52mm 216 W/m2
10:29 45.3 °F /  7.4 °C 43.3 °F /  6.3 °C 29.45in /  997.2hPa NW 4mph /  6.4km/h 10mph /  16.1km/h 89.6% 0.06in /  1.52mm 232 W/m2
10:34 45.8 °F /  7.7 °C 43.7 °F /  6.5 °C 29.44in /  996.8hPa NW 5mph /  8km/h 10mph /  16.1km/h 89.2% 0.06in /  1.52mm 149 W/m2
10:39 46.2 °F /  7.9 °C 44.4 °F /  6.9 °C 29.44in /  996.8hPa WNW 5.6mph /  9km/h 9mph /  14.5km/h 90% 0.06in /  1.52mm 306 W/m2
10:44 46.8 °F /  8.2 °C 45 °F /  7.2 °C 29.44in /  996.8hPa NW 6mph /  9.7km/h 9mph /  14.5km/h 90% 0.06in /  1.52mm 234 W/m2
10:49 46.9 °F /  8.3 °C 45 °F /  7.2 °C 29.44in /  996.8hPa NW 4.1mph /  6.6km/h 8mph /  12.9km/h 90% 0.06in /  1.52mm 123 W/m2
10:54 47 °F /  8.3 °C 44.9 °F /  7.2 °C 29.43in /  996.5hPa NW 4mph /  6.4km/h 9mph /  14.5km/h 89.4% 0.01in /  0.25mm 84 W/m2
10:59 46.9 °F /  8.3 °C 45 °F /  7.2 °C 29.42in /  996.2hPa WNW 7.7mph /  12.4km/h 12mph /  19.3km/h 89.6% 0.00in /  0mm 185 W/m2
11:04 47.4 °F /  8.6 °C 45.2 °F /  7.3 °C 29.42in /  996.2hPa NW 4.7mph /  7.6km/h 9mph /  14.5km/h 89% 0.00in /  0mm 264 W/m2
11:09 47.6 °F /  8.7 °C 45.4 °F /  7.4 °C 29.42in /  996.2hPa WNW 4.5mph /  7.2km/h 13mph /  20.9km/h 89% 0.00in /  0mm 237 W/m2
11:14 47.6 °F /  8.7 °C 45.2 °F /  7.3 °C 29.41in /  995.8hPa WNW 7.2mph /  11.6km/h 11mph /  17.7km/h 88.4% 0.00in /  0mm 178 W/m2
11:19 47.7 °F /  8.7 °C 45 °F /  7.2 °C 29.41in /  995.8hPa WNW 6.8mph /  10.9km/h 11mph /  17.7km/h 87.5% 0.00in /  0mm 272 W/m2
11:24 48 °F /  8.9 °C 44.9 °F /  7.2 °C 29.41in /  995.8hPa WNW 10.3mph /  16.6km/h 17mph /  27.4km/h 85.8% 0.00in /  0mm 250 W/m2
11:29 48.4 °F /  9.1 °C 44.5 °F /  6.9 °C 29.41in /  995.8hPa WNW 7.8mph /  12.6km/h 18mph /  29km/h 83.6% 0.00in /  0mm 279 W/m2
11:34 48.6 °F /  9.2 °C 44.2 °F /  6.8 °C 29.41in /  995.8hPa WNW 13.2mph /  21.2km/h 22mph /  35.4km/h 82% 0.00in /  0mm 243 W/m2
11:39 48.6 °F /  9.2 °C 43.7 °F /  6.5 °C 29.40in /  995.5hPa WNW 10.4mph /  16.7km/h 18mph /  29km/h 80.6% 0.00in /  0mm 283 W/m2
11:44 48.6 °F /  9.2 °C 43.5 °F /  6.4 °C 29.40in /  995.5hPa WNW 8.2mph /  13.2km/h 18mph /  29km/h 80% 0.00in /  0mm 243 W/m2
11:49 48.6 °F /  9.2 °C 43.5 °F /  6.4 °C 29.40in /  995.5hPa WNW 8.7mph /  14km/h 19mph /  30.6km/h 80% 0.00in /  0mm 267 W/m2
11:54 48.6 °F /  9.2 °C 43.3 °F /  6.3 °C 29.40in /  995.5hPa WNW 7.2mph /  11.6km/h 19mph /  30.6km/h 79.2% 0.00in /  0mm 185 W/m2
11:59 48.6 °F /  9.2 °C 43.4 °F /  6.3 °C 29.40in /  995.5hPa WNW 8.6mph /  13.8km/h 13mph /  20.9km/h 79.6% 0.00in /  0mm 134 W/m2
12:04 48.4 °F /  9.1 °C 43.2 °F /  6.2 °C 29.39in /  995.1hPa WNW 10.4mph /  16.7km/h 17mph /  27.4km/h 79.8% 0.00in /  0mm 139 W/m2
12:09 48.4 °F /  9.1 °C 42.9 °F /  6.1 °C 29.39in /  995.1hPa NW 7mph /  11.3km/h 15mph /  24.1km/h 78.6% 0.00in /  0mm 148 W/m2
12:14 48.2 °F /  9 °C 42.4 °F /  5.8 °C 29.39in /  995.1hPa NW 9.2mph /  14.8km/h 22mph /  35.4km/h 77.6% 0.00in /  0mm 90 W/m2
12:19 47.8 °F /  8.8 °C 41.8 °F /  5.4 °C 29.39in /  995.1hPa NW 7.6mph /  12.2km/h 14mph /  22.5km/h 76.6% 0.00in /  0mm 137 W/m2
12:24 47.8 °F /  8.8 °C 41.8 °F /  5.4 °C 29.39in /  995.1hPa NW 5.3mph /  8.5km/h 14mph /  22.5km/h 76.6% 0.00in /  0mm 104 W/m2
12:29 47.6 °F /  8.7 °C 42 °F /  5.6 °C 29.39in /  995.1hPa WNW 7.4mph /  11.9km/h 13mph /  20.9km/h 77.8% 0.00in /  0mm 100 W/m2
12:34 47.3 °F /  8.5 °C 41.9 °F /  5.5 °C 29.39in /  995.1hPa WNW 6.3mph /  10.1km/h 13mph /  20.9km/h 78.6% 0.00in /  0mm 132 W/m2
12:39 47.4 °F /  8.6 °C 42.2 °F /  5.7 °C 29.38in /  994.8hPa WNW 8.6mph /  13.8km/h 16mph /  25.7km/h 79% 0.00in /  0mm 192 W/m2
12:44 47.5 °F /  8.6 °C 42.3 °F /  5.7 °C 29.38in /  994.8hPa WNW 8.4mph /  13.5km/h 14mph /  22.5km/h 79% 0.00in /  0mm 107 W/m2
12:49 47.4 °F /  8.6 °C 42.2 °F /  5.7 °C 29.38in /  994.8hPa WNW 8.7mph /  14km/h 15mph /  24.1km/h 79% 0.00in /  0mm 153 W/m2
12:54 47.6 °F /  8.7 °C 42.3 °F /  5.7 °C 29.38in /  994.8hPa WNW 7mph /  11.3km/h 13mph /  20.9km/h 79% 0.00in /  0mm 197 W/m2
12:59 47.7 °F /  8.7 °C 42.3 °F /  5.7 °C 29.37in /  994.5hPa WNW 6.2mph /  10km/h 14mph /  22.5km/h 78.8% 0.00in /  0mm 207 W/m2
13:04 47.9 °F /  8.8 °C 42.5 °F /  5.8 °C 29.37in /  994.5hPa NW 7mph /  11.3km/h 15mph /  24.1km/h 79% 0.00in /  0mm 246 W/m2
13:09 47.7 °F /  8.7 °C 42.3 °F /  5.7 °C 29.38in /  994.8hPa NNW 13.3mph /  21.4km/h 28mph /  45.1km/h 78.8% 0.00in /  0mm 120 W/m2
13:14 45.9 °F /  7.7 °C 40.7 °F /  4.8 °C 29.38in /  994.8hPa NNW 8.2mph /  13.2km/h 26mph /  41.8km/h 79.2% 0.01in /  0.25mm 19 W/m2
13:19 44.6 °F /  7 °C 40.2 °F /  4.6 °C 29.37in /  994.5hPa NW 7.4mph /  11.9km/h 17mph /  27.4km/h 81.8% 0.01in /  0.25mm 32 W/m2
13:24 44 °F /  6.7 °C 40.2 °F /  4.6 °C 29.37in /  994.5hPa WNW 4mph /  6.4km/h 14mph /  22.5km/h 83.4% 0.01in /  0.25mm 53 W/m2
13:29 43.9 °F /  6.6 °C 40.5 °F /  4.7 °C 29.37in /  994.5hPa NW 4.1mph /  6.6km/h 9mph /  14.5km/h 84.8% 0.01in /  0.25mm 267 W/m2
13:34 44.2 °F /  6.8 °C 41.1 °F /  5.1 °C 29.37in /  994.5hPa WNW 5.6mph /  9km/h 9mph /  14.5km/h 85.6% 0.01in /  0.25mm 267 W/m2
13:39 44.4 °F /  6.9 °C 41.3 °F /  5.2 °C 29.37in /  994.5hPa WNW 3.5mph /  5.6km/h 6mph /  9.7km/h 85.8% 0.01in /  0.25mm 125 W/m2
13:44 44.6 °F /  7 °C 41.4 °F /  5.2 °C 29.37in /  994.5hPa West 4.8mph /  7.7km/h 10mph /  16.1km/h 85.8% 0.01in /  0.25mm 105 W/m2
13:49 44.6 °F /  7 °C 41.5 °F /  5.3 °C 29.36in /  994.1hPa WSW 3.7mph /  6km/h 9mph /  14.5km/h 86% 0.01in /  0.25mm 76 W/m2
13:54 44.4 °F /  6.9 °C 41.3 °F /  5.2 °C 29.36in /  994.1hPa West 5mph /  8km/h 10mph /  16.1km/h 85.8% 0.01in /  0.25mm 174 W/m2
13:59 44.7 °F /  7.1 °C 41.3 °F /  5.2 °C 29.35in /  993.8hPa NW 1.7mph /  2.7km/h 5mph /  8km/h 85% 0.01in /  0.25mm 79 W/m2
14:04 44.9 °F /  7.2 °C 41.5 °F /  5.3 °C 29.35in /  993.8hPa NW 1.1mph /  1.8km/h 3mph /  4.8km/h 85% 0.01in /  0.25mm 53 W/m2
14:09 45 °F /  7.2 °C 41.5 °F /  5.3 °C 29.36in /  994.1hPa NNW 5.9mph /  9.5km/h 16mph /  25.7km/h 85% 0.02in /  0.51mm 26 W/m2
14:14 44.4 °F /  6.9 °C 41 °F /  5 °C 29.36in /  994.1hPa NW 7.4mph /  11.9km/h 16mph /  25.7km/h 85% 0.02in /  0.51mm 44 W/m2
14:19 43.6 °F /  6.4 °C 40.4 °F /  4.7 °C 29.36in /  994.1hPa NW 7mph /  11.3km/h 14mph /  22.5km/h 85% 0.02in /  0.51mm 40 W/m2
14:24 43.5 °F /  6.4 °C 40.3 °F /  4.6 °C 29.36in /  994.1hPa NW 7.8mph /  12.6km/h 14mph /  22.5km/h 85.2% 0.02in /  0.51mm 39 W/m2
14:29 43.6 °F /  6.4 °C 40.6 °F /  4.8 °C 29.35in /  993.8hPa NW 6.2mph /  10km/h 16mph /  25.7km/h 86% 0.02in /  0.51mm 46 W/m2
14:34 43.8 °F /  6.6 °C 40.5 °F /  4.7 °C 29.36in /  994.1hPa WNW 7.4mph /  11.9km/h 17mph /  27.4km/h 85.2% 0.02in /  0.51mm 28 W/m2
14:39 43.5 °F /  6.4 °C 40.3 °F /  4.6 °C 29.36in /  994.1hPa NW 11.4mph /  18.3km/h 20mph /  32.2km/h 85% 0.02in /  0.51mm 30 W/m2
14:44 43.3 °F /  6.3 °C 40.1 °F /  4.5 °C 29.35in /  993.8hPa WNW 7.4mph /  11.9km/h 17mph /  27.4km/h 84.8% 0.02in /  0.51mm 30 W/m2
14:49 43.3 °F /  6.3 °C 40.1 °F /  4.5 °C 29.36in /  994.1hPa NW 7.4mph /  11.9km/h 17mph /  27.4km/h 85% 0.02in /  0.51mm 44 W/m2
14:54 43.3 °F /  6.3 °C 40.1 °F /  4.5 °C 29.36in /  994.1hPa WNW 8.4mph /  13.5km/h 19mph /  30.6km/h 85% 0.02in /  0.51mm 40 W/m2
14:59 43.3 °F /  6.3 °C 40.1 °F /  4.5 °C 29.36in /  994.1hPa NW 8.8mph /  14.2km/h 16mph /  25.7km/h 85% 0.02in /  0.51mm 30 W/m2
15:04 43.3 °F /  6.3 °C 40.1 °F /  4.5 °C 29.36in /  994.1hPa NW 5.6mph /  9km/h 13mph /  20.9km/h 85% 0.02in /  0.51mm 28 W/m2
15:09 43.1 °F /  6.2 °C 39.8 °F /  4.3 °C 29.36in /  994.1hPa NW 8.6mph /  13.8km/h 17mph /  27.4km/h 85% 0.02in /  0.51mm 32 W/m2
15:14 43 °F /  6.1 °C 39.7 °F /  4.3 °C 29.36in /  994.1hPa NW 7.8mph /  12.6km/h 14mph /  22.5km/h 85% 0.01in /  0.25mm 35 W/m2
15:19 43 °F /  6.1 °C 39.7 °F /  4.3 °C 29.36in /  994.1hPa NW 6.8mph /  10.9km/h 12mph /  19.3km/h 85% 0.00in /  0mm 44 W/m2
15:24 42.8 °F /  6 °C 39.6 °F /  4.2 °C 29.36in /  994.1hPa NW 5.2mph /  8.4km/h 12mph /  19.3km/h 85% 0.00in /  0mm 40 W/m2
15:29 42.6 °F /  5.9 °C 39.4 °F /  4.1 °C 29.36in /  994.1hPa WNW 5.2mph /  8.4km/h 10mph /  16.1km/h 85% 0.00in /  0mm 23 W/m2
15:34 42.5 °F /  5.8 °C 39.3 °F /  4.1 °C 29.36in /  994.1hPa WNW 4.4mph /  7.1km/h 9mph /  14.5km/h 85% 0.00in /  0mm 19 W/m2
15:39 42.4 °F /  5.8 °C 39.3 °F /  4.1 °C 29.36in /  994.1hPa WNW 5.2mph /  8.4km/h 8mph /  12.9km/h 85.4% 0.00in /  0mm 18 W/m2
15:44 42.4 °F /  5.8 °C 39.4 °F /  4.1 °C 29.36in /  994.1hPa WNW 3.3mph /  5.3km/h 7mph /  11.3km/h 86% 0.00in /  0mm 21 W/m2
15:49 42.3 °F /  5.7 °C 39.2 °F /  4 °C 29.36in /  994.1hPa NW 4.4mph /  7.1km/h 8mph /  12.9km/h 86% 0.00in /  0mm 21 W/m2
15:54 42.3 °F /  5.7 °C 39.2 °F /  4 °C 29.36in /  994.1hPa WNW 4.1mph /  6.6km/h 9mph /  14.5km/h 86% 0.00in /  0mm 11 W/m2
15:59 42.3 °F /  5.7 °C 39.2 °F /  4 °C 29.36in /  994.1hPa WNW 3.2mph /  5.1km/h 6mph /  9.7km/h 86% 0.00in /  0mm 7 W/m2
16:04 42.3 °F /  5.7 °C 39 °F /  3.9 °C 29.36in /  994.1hPa WNW 3.7mph /  6km/h 7mph /  11.3km/h 85% 0.00in /  0mm 7 W/m2
16:09 42.3 °F /  5.7 °C 39 °F /  3.9 °C 29.36in /  994.1hPa NW 4mph /  6.4km/h 6mph /  9.7km/h 85% 0.00in /  0mm 5 W/m2
16:14 42.1 °F /  5.6 °C 38.7 °F /  3.7 °C 29.36in /  994.1hPa NW 6.6mph /  10.6km/h 12mph /  19.3km/h 84.6% 0.00in /  0mm 0 W/m2
16:19 42.1 °F /  5.6 °C 38.5 °F /  3.6 °C 29.36in /  994.1hPa NW 6.4mph /  10.3km/h 12mph /  19.3km/h 84% 0.00in /  0mm 0 W/m2
16:24 42.1 °F /  5.6 °C 38.3 °F /  3.5 °C 29.36in /  994.1hPa WNW 7.4mph /  11.9km/h 13mph /  20.9km/h 83.6% 0.00in /  0mm 0 W/m2
16:29 42.1 °F /  5.6 °C 38.1 °F /  3.4 °C 29.36in /  994.1hPa WNW 6.7mph /  10.8km/h 15mph /  24.1km/h 83% 0.00in /  0mm 0 W/m2
16:34 41.8 °F /  5.4 °C 37.8 °F /  3.2 °C 29.36in /  994.1hPa WNW 7.8mph /  12.6km/h 13mph /  20.9km/h 83% 0.00in /  0mm 0 W/m2
16:39 41.6 °F /  5.3 °C 37.6 °F /  3.1 °C 29.36in /  994.1hPa NW 8.6mph /  13.8km/h 17mph /  27.4km/h 82.4% 0.00in /  0mm 0 W/m2
16:44 41.5 °F /  5.3 °C 37.4 °F /  3 °C 29.37in /  994.5hPa NW 5.3mph /  8.5km/h 12mph /  19.3km/h 82% 0.00in /  0mm 0 W/m2
16:49 41.4 °F /  5.2 °C 37.3 °F /  2.9 °C 29.36in /  994.1hPa NW 4.3mph /  6.9km/h 14mph /  22.5km/h 82% 0.00in /  0mm 0 W/m2
16:54 41.4 °F /  5.2 °C 37.2 °F /  2.9 °C 29.36in /  994.1hPa WNW 2.7mph /  4.3km/h 12mph /  19.3km/h 82% 0.00in /  0mm 0 W/m2
16:59 41.4 °F /  5.2 °C 37.2 °F /  2.9 °C 29.36in /  994.1hPa WNW 6mph /  9.7km/h 9mph /  14.5km/h 82% 0.00in /  0mm 0 W/m2
17:04 41.4 °F /  5.2 °C 37.2 °F /  2.9 °C 29.36in /  994.1hPa NW 5.6mph /  9km/h 12mph /  19.3km/h 82% 0.00in /  0mm 0 W/m2
17:09 41.5 °F /  5.3 °C 37.3 °F /  2.9 °C 29.37in /  994.5hPa NW 7.1mph /  11.4km/h 15mph /  24.1km/h 82% 0.00in /  0mm 0 W/m2
17:14 41.5 °F /  5.3 °C 37.4 °F /  3 °C 29.37in /  994.5hPa NW 6.4mph /  10.3km/h 16mph /  25.7km/h 82% 0.00in /  0mm 0 W/m2
17:19 41.7 °F /  5.4 °C 37.3 °F /  2.9 °C 29.37in /  994.5hPa NNW 6.2mph /  10km/h 16mph /  25.7km/h 81.2% 0.00in /  0mm 0 W/m2
17:24 41.5 °F /  5.3 °C 37 °F /  2.8 °C 29.37in /  994.5hPa NW 6.1mph /  9.8km/h 14mph /  22.5km/h 81% 0.00in /  0mm 0 W/m2
17:29 41.4 °F /  5.2 °C 36.9 °F /  2.7 °C 29.37in /  994.5hPa NW 7mph /  11.3km/h 13mph /  20.9km/h 81% 0.00in /  0mm 0 W/m2
17:34 41 °F /  5 °C 36.5 °F /  2.5 °C 29.37in /  994.5hPa WNW 5.9mph /  9.5km/h 11mph /  17.7km/h 81% 0.00in /  0mm 0 W/m2
17:39 40.6 °F /  4.8 °C 36.1 °F /  2.3 °C 29.37in /  994.5hPa WNW 6.4mph /  10.3km/h 12mph /  19.3km/h 81% 0.00in /  0mm 0 W/m2
17:44 40.5 °F /  4.7 °C 36.3 °F /  2.4 °C 29.36in /  994.1hPa WNW 4.5mph /  7.2km/h 11mph /  17.7km/h 82% 0.00in /  0mm 0 W/m2
17:49 40.3 °F /  4.6 °C 36.1 °F /  2.3 °C 29.36in /  994.1hPa WNW 4.1mph /  6.6km/h 9mph /  14.5km/h 82% 0.00in /  0mm 0 W/m2
17:54 40.3 °F /  4.6 °C 36.5 °F /  2.5 °C 29.36in /  994.1hPa WNW 5mph /  8km/h 11mph /  17.7km/h 83% 0.00in /  0mm 0 W/m2
17:59 40.3 °F /  4.6 °C 36.5 °F /  2.5 °C 29.36in /  994.1hPa WNW 5mph /  8km/h 9mph /  14.5km/h 83% 0.00in /  0mm 0 W/m2
18:04 40 °F /  4.4 °C 36.2 °F /  2.3 °C 29.36in /  994.1hPa WNW 5.2mph /  8.4km/h 9mph /  14.5km/h 83% 0.00in /  0mm 0 W/m2
18:09 39.9 °F /  4.4 °C 36.2 °F /  2.3 °C 29.36in /  994.1hPa WNW 4.8mph /  7.7km/h 10mph /  16.1km/h 83.8% 0.00in /  0mm 0 W/m2
18:14 39.8 °F /  4.3 °C 36.2 °F /  2.3 °C 29.36in /  994.1hPa WNW 4.4mph /  7.1km/h 10mph /  16.1km/h 84% 0.00in /  0mm 0 W/m2
18:19 39.7 °F /  4.3 °C 36.1 °F /  2.3 °C 29.36in /  994.1hPa WNW 4mph /  6.4km/h 9mph /  14.5km/h 84% 0.00in /  0mm 0 W/m2
18:24 39.6 °F /  4.2 °C 35.8 °F /  2.1 °C 29.36in /  994.1hPa NW 5.6mph /  9km/h 11mph /  17.7km/h 83.2% 0.00in /  0mm 0 W/m2
18:29 39.4 °F /  4.1 °C 35.6 °F /  2 °C 29.36in /  994.1hPa WNW 5.6mph /  9km/h 10mph /  16.1km/h 83% 0.00in /  0mm 0 W/m2
18:34 39.3 °F /  4.1 °C 35.5 °F /  1.9 °C 29.35in /  993.8hPa WNW 5.8mph /  9.3km/h 9mph /  14.5km/h 83% 0.00in /  0mm 0 W/m2
18:39 39 °F /  3.9 °C 35.3 °F /  1.8 °C 29.36in /  994.1hPa WNW 4.3mph /  6.9km/h 8mph /  12.9km/h 83.4% 0.00in /  0mm 0 W/m2
18:44 39 °F /  3.9 °C 35.3 °F /  1.8 °C 29.35in /  993.8hPa NW 4.9mph /  7.9km/h 10mph /  16.1km/h 83.6% 0.00in /  0mm 0 W/m2
18:49 39 °F /  3.9 °C 35.2 °F /  1.8 °C 29.36in /  994.1hPa NW 6.6mph /  10.6km/h 11mph /  17.7km/h 83% 0.00in /  0mm 0 W/m2
18:54 39 °F /  3.9 °C 35.1 °F /  1.7 °C 29.35in /  993.8hPa WNW 6.4mph /  10.3km/h 12mph /  19.3km/h 82.6% 0.00in /  0mm 0 W/m2
18:59 39.2 °F /  4 °C 35.1 °F /  1.7 °C 29.35in /  993.8hPa WNW 6.8mph /  10.9km/h 12mph /  19.3km/h 82% 0.00in /  0mm 0 W/m2
19:04 39.4 °F /  4.1 °C 34.9 °F /  1.6 °C 29.35in /  993.8hPa NW 6.7mph /  10.8km/h 14mph /  22.5km/h 81% 0.00in /  0mm 0 W/m2
19:09 39.4 °F /  4.1 °C 34.7 °F /  1.5 °C 29.35in /  993.8hPa NW 4.7mph /  7.6km/h 13mph /  20.9km/h 80.4% 0.00in /  0mm 0 W/m2
19:14 39.4 °F /  4.1 °C 34.5 °F /  1.4 °C 29.35in /  993.8hPa NW 5mph /  8km/h 9mph /  14.5km/h 80% 0.00in /  0mm 0 W/m2
19:19 39.4 °F /  4.1 °C 34.5 °F /  1.4 °C 29.35in /  993.8hPa WNW 4.9mph /  7.9km/h 10mph /  16.1km/h 80% 0.00in /  0mm 0 W/m2
19:24 39 °F /  3.9 °C 34.3 °F /  1.3 °C 29.34in /  993.5hPa WNW 6mph /  9.7km/h 11mph /  17.7km/h 80% 0.00in /  0mm 0 W/m2
19:29 39 °F /  3.9 °C 34.3 °F /  1.3 °C 29.34in /  993.5hPa WNW 5.5mph /  8.9km/h 10mph /  16.1km/h 80.2% 0.00in /  0mm 0 W/m2
19:34 38.8 °F /  3.8 °C 34.3 °F /  1.3 °C 29.34in /  993.5hPa WNW 7.4mph /  11.9km/h 12mph /  19.3km/h 81% 0.00in /  0mm 0 W/m2
19:39 38.8 °F /  3.8 °C 34.3 °F /  1.3 °C 29.34in /  993.5hPa WNW 8.2mph /  13.2km/h 14mph /  22.5km/h 81% 0.00in /  0mm 0 W/m2
19:44 38.9 °F /  3.8 °C 34.3 °F /  1.3 °C 29.34in /  993.5hPa WNW 5.6mph /  9km/h 12mph /  19.3km/h 80.4% 0.00in /  0mm 0 W/m2
19:49 38.8 °F /  3.8 °C 34.2 °F /  1.2 °C 29.34in /  993.5hPa WNW 7.6mph /  12.2km/h 12mph /  19.3km/h 80% 0.00in /  0mm 0 W/m2
19:54 38.8 °F /  3.8 °C 34.2 °F /  1.2 °C 29.33in /  993.1hPa WNW 9.9mph /  15.9km/h 13mph /  20.9km/h 80% 0.00in /  0mm 0 W/m2
19:59 38.8 °F /  3.8 °C 34 °F /  1.1 °C 29.32in /  992.8hPa WNW 6.4mph /  10.3km/h 15mph /  24.1km/h 79.6% 0.00in /  0mm 0 W/m2
20:04 38.8 °F /  3.8 °C 33.8 °F /  1 °C 29.32in /  992.8hPa WNW 7.9mph /  12.7km/h 12mph /  19.3km/h 79% 0.00in /  0mm 0 W/m2
20:09 38.7 °F /  3.7 °C 34 °F /  1.1 °C 29.32in /  992.8hPa WNW 5.2mph /  8.4km/h 12mph /  19.3km/h 80% 0.00in /  0mm 0 W/m2
20:14 38.5 °F /  3.6 °C 33.8 °F /  1 °C 29.32in /  992.8hPa WNW 5.5mph /  8.9km/h 11mph /  17.7km/h 80.4% 0.00in /  0mm 0 W/m2
20:19 38.3 °F /  3.5 °C 33.8 °F /  1 °C 29.31in /  992.4hPa WNW 5.3mph /  8.5km/h 12mph /  19.3km/h 81% 0.00in /  0mm 0 W/m2
20:24 38.1 °F /  3.4 °C 34 °F /  1.1 °C 29.31in /  992.4hPa WNW 7.5mph /  12.1km/h 12mph /  19.3km/h 82% 0.00in /  0mm 0 W/m2
20:29 38.1 °F /  3.4 °C 34.3 °F /  1.3 °C 29.31in /  992.4hPa WNW 6.3mph /  10.1km/h 13mph /  20.9km/h 83% 0.00in /  0mm 0 W/m2
20:34 38.1 °F /  3.4 °C 34.3 °F /  1.3 °C 29.31in /  992.4hPa NW 8.6mph /  13.8km/h 16mph /  25.7km/h 83% 0.00in /  0mm 0 W/m2
20:39 38.3 °F /  3.5 °C 34.5 °F /  1.4 °C 29.31in /  992.4hPa WNW 8.6mph /  13.8km/h 12mph /  19.3km/h 83.4% 0.00in /  0mm 0 W/m2
20:44 38.4 °F /  3.6 °C 34.6 °F /  1.4 °C 29.31in /  992.4hPa WNW 7mph /  11.3km/h 15mph /  24.1km/h 83% 0.00in /  0mm 0 W/m2
20:49 38.4 °F /  3.6 °C 34.6 °F /  1.4 °C 29.31in /  992.4hPa WNW 4.6mph /  7.4km/h 13mph /  20.9km/h 83% 0.00in /  0mm 0 W/m2
20:54 38.3 °F /  3.5 °C 34.5 °F /  1.4 °C 29.31in /  992.4hPa NW 5.2mph /  8.4km/h 11mph /  17.7km/h 83% 0.00in /  0mm 0 W/m2
20:59 38.3 °F /  3.5 °C 34.5 °F /  1.4 °C 29.31in /  992.4hPa WNW 4.7mph /  7.6km/h 10mph /  16.1km/h 83% 0.00in /  0mm 0 W/m2
21:04 38.1 °F /  3.4 °C 34.3 °F /  1.3 °C 29.31in /  992.4hPa WNW 6.4mph /  10.3km/h 11mph /  17.7km/h 83% 0.00in /  0mm 0 W/m2
21:09 38.2 °F /  3.4 °C 34.4 °F /  1.3 °C 29.31in /  992.4hPa WNW 7mph /  11.3km/h 11mph /  17.7km/h 83% 0.00in /  0mm 0 W/m2
21:14 38 °F /  3.3 °C 34.3 °F /  1.3 °C 29.31in /  992.4hPa WNW 7.4mph /  11.9km/h 12mph /  19.3km/h 83% 0.00in /  0mm 0 W/m2
21:19 37.9 °F /  3.3 °C 34.3 °F /  1.3 °C 29.30in /  992.1hPa WNW 7mph /  11.3km/h 13mph /  20.9km/h 83.6% 0.00in /  0mm 0 W/m2
21:24 37.8 °F /  3.2 °C 34.2 °F /  1.2 °C 29.30in /  992.1hPa WNW 8.8mph /  14.2km/h 13mph /  20.9km/h 84% 0.00in /  0mm 0 W/m2
21:29 37.8 °F /  3.2 °C 34.2 °F /  1.2 °C 29.30in /  992.1hPa NW 6.6mph /  10.6km/h 13mph /  20.9km/h 84% 0.00in /  0mm 0 W/m2
21:34 37.9 °F /  3.3 °C 34.3 °F /  1.3 °C 29.30in /  992.1hPa WNW 11.2mph /  18km/h 16mph /  25.7km/h 84% 0.00in /  0mm 0 W/m2
21:39 38.1 °F /  3.4 °C 34.5 °F /  1.4 °C 29.29in /  991.8hPa WNW 7.8mph /  12.6km/h 16mph /  25.7km/h 83.8% 0.00in /  0mm 0 W/m2
21:44 38.4 °F /  3.6 °C 34.6 °F /  1.4 °C 29.29in /  991.8hPa WNW 8.8mph /  14.2km/h 15mph /  24.1km/h 83% 0.00in /  0mm 0 W/m2
21:49 38.5 °F /  3.6 °C 34.7 °F /  1.5 °C 29.28in /  991.4hPa WNW 8.4mph /  13.5km/h 15mph /  24.1km/h 83% 0.00in /  0mm 0 W/m2
21:54 38.5 °F /  3.6 °C 34.7 °F /  1.5 °C 29.28in /  991.4hPa WNW 7mph /  11.3km/h 14mph /  22.5km/h 83% 0.00in /  0mm 0 W/m2
21:59 38.6 °F /  3.7 °C 34.7 °F /  1.5 °C 29.28in /  991.4hPa WNW 8mph /  12.9km/h 13mph /  20.9km/h 82.6% 0.00in /  0mm 0 W/m2
22:04 38.7 °F /  3.7 °C 34.5 °F /  1.4 °C 29.28in /  991.4hPa WNW 5.3mph /  8.5km/h 10mph /  16.1km/h 82% 0.00in /  0mm 0 W/m2
22:09 38.7 °F /  3.7 °C 34.5 °F /  1.4 °C 29.28in /  991.4hPa WNW 6.8mph /  10.9km/h 10mph /  16.1km/h 82% 0.00in /  0mm 0 W/m2
22:14 38.7 °F /  3.7 °C 34.5 °F /  1.4 °C 29.27in /  991.1hPa WNW 6.6mph /  10.6km/h 11mph /  17.7km/h 82% 0.00in /  0mm 0 W/m2
22:19 38.7 °F /  3.7 °C 34.5 °F /  1.4 °C 29.27in /  991.1hPa WNW 6.9mph /  11.1km/h 14mph /  22.5km/h 82% 0.00in /  0mm 0 W/m2
22:24 38.7 °F /  3.7 °C 34.6 °F /  1.4 °C 29.27in /  991.1hPa WNW 8mph /  12.9km/h 12mph /  19.3km/h 82% 0.00in /  0mm 0 W/m2
22:29 38.8 °F /  3.8 °C 34.7 °F /  1.5 °C 29.27in /  991.1hPa WNW 5.7mph /  9.2km/h 12mph /  19.3km/h 82% 0.00in /  0mm 0 W/m2
22:34 38.9 °F /  3.8 °C 34.7 °F /  1.5 °C 29.27in /  991.1hPa WNW 4.7mph /  7.6km/h 13mph /  20.9km/h 81.8% 0.00in /  0mm 0 W/m2
22:39 39.2 °F /  4 °C 34.7 °F /  1.5 °C 29.26in /  990.7hPa WNW 11.2mph /  18km/h 20mph /  32.2km/h 81% 0.00in /  0mm 0 W/m2
22:44 39.7 °F /  4.3 °C 35.2 °F /  1.8 °C 29.26in /  990.7hPa WNW 8mph /  12.9km/h 20mph /  32.2km/h 81% 0.00in /  0mm 0 W/m2
22:49 39.9 °F /  4.4 °C 35.2 °F /  1.8 °C 29.26in /  990.7hPa WNW 9.6mph /  15.4km/h 21mph /  33.8km/h 80.4% 0.00in /  0mm 0 W/m2
22:54 40 °F /  4.4 °C 35.2 °F /  1.8 °C 29.26in /  990.7hPa West 12.4mph /  20km/h 21mph /  33.8km/h 80% 0.00in /  0mm 0 W/m2
22:59 39.8 °F /  4.3 °C 35.3 °F /  1.8 °C 29.25in /  990.4hPa WNW 9.4mph /  15.1km/h 17mph /  27.4km/h 81% 0.00in /  0mm 0 W/m2
23:04 39.7 °F /  4.3 °C 35.4 °F /  1.9 °C 29.25in /  990.4hPa WNW 8.9mph /  14.3km/h 15mph /  24.1km/h 81.5% 0.00in /  0mm 0 W/m2
23:09 39.6 °F /  4.2 °C 35.5 °F /  1.9 °C 29.25in /  990.4hPa WNW 7mph /  11.3km/h 13mph /  20.9km/h 82.2% 0.00in /  0mm 0 W/m2
23:14 39.6 °F /  4.2 °C 35.8 °F /  2.1 °C 29.24in /  990.1hPa WNW 7.2mph /  11.6km/h 15mph /  24.1km/h 83% 0.00in /  0mm 0 W/m2
23:19 39.6 °F /  4.2 °C 35.8 °F /  2.1 °C 29.24in /  990.1hPa NW 10.2mph /  16.4km/h 18mph /  29km/h 83.2% 0.00in /  0mm 0 W/m2
23:24 39.6 °F /  4.2 °C 36 °F /  2.2 °C 29.23in /  989.7hPa WNW 8.6mph /  13.8km/h 17mph /  27.4km/h 84% 0.00in /  0mm 0 W/m2
23:29 39.6 °F /  4.2 °C 36 °F /  2.2 °C 29.23in /  989.7hPa NW 6.2mph /  10km/h 15mph /  24.1km/h 84% 0.00in /  0mm 0 W/m2
23:34 39.7 °F /  4.3 °C 36.1 °F /  2.3 °C 29.23in /  989.7hPa WNW 9mph /  14.5km/h 18mph /  29km/h 84% 0.00in /  0mm 0 W/m2
23:39 39.8 °F /  4.3 °C 36.2 °F /  2.3 °C 29.23in /  989.7hPa NW 9mph /  14.5km/h 15mph /  24.1km/h 84% 0.00in /  0mm 0 W/m2
23:44 39.7 °F /  4.3 °C 36.1 °F /  2.3 °C 29.23in /  989.7hPa WNW 9.6mph /  15.4km/h 15mph /  24.1km/h 84% 0.00in /  0mm 0 W/m2
23:49 39.8 °F /  4.3 °C 36.2 °F /  2.3 °C 29.23in /  989.7hPa WNW 13.4mph /  21.6km/h 18mph /  29km/h 84% 0.00in /  0mm 0 W/m2
23:54 39.9 °F /  4.4 °C 36.3 °F /  2.4 °C 29.23in /  989.7hPa NW 9.6mph /  15.4km/h 19mph /  30.6km/h 84% 0.00in /  0mm 0 W/m2
23:59 40.1 °F /  4.5 °C 36.3 °F /  2.4 °C 29.22in /  989.4hPa WNW 9.8mph /  15.8km/h 18mph /  29km/h 83.2% 0.00in /  0mm 0 W/m2
Bath Spa Weather
Compliments of Weather Underground - 2 mb